sensor_id;sensor_type;location;lat;lon;timestamp;P1;durP1;ratioP1;P2;durP2;ratioP2
28551;SDS011;15752;49.560;8.708;2023-02-28T00:01:35;2.30;;;1.53;;
28551;SDS011;15752;49.560;8.708;2023-02-28T00:04:04;2.10;;;1.50;;
28551;SDS011;15752;49.560;8.708;2023-02-28T00:06:35;2.13;;;1.30;;
28551;SDS011;15752;49.560;8.708;2023-02-28T00:09:04;1.73;;;1.20;;
28551;SDS011;15752;49.560;8.708;2023-02-28T00:11:32;2.27;;;1.67;;
28551;SDS011;15752;49.560;8.708;2023-02-28T00:14:00;2.87;;;1.93;;
28551;SDS011;15752;49.560;8.708;2023-02-28T00:16:29;3.07;;;1.30;;
28551;SDS011;15752;49.560;8.708;2023-02-28T00:18:57;2.13;;;1.67;;
28551;SDS011;15752;49.560;8.708;2023-02-28T00:21:27;3.70;;;1.87;;
28551;SDS011;15752;49.560;8.708;2023-02-28T00:23:56;2.53;;;1.50;;
28551;SDS011;15752;49.560;8.708;2023-02-28T00:26:24;2.20;;;1.50;;
28551;SDS011;15752;49.560;8.708;2023-02-28T00:28:53;2.63;;;1.50;;
28551;SDS011;15752;49.560;8.708;2023-02-28T00:31:21;2.17;;;1.53;;
28551;SDS011;15752;49.560;8.708;2023-02-28T00:33:50;1.83;;;1.53;;
28551;SDS011;15752;49.560;8.708;2023-02-28T00:36:19;2.43;;;1.53;;
28551;SDS011;15752;49.560;8.708;2023-02-28T00:38:49;3.07;;;1.80;;
28551;SDS011;15752;49.560;8.708;2023-02-28T00:41:18;2.10;;;1.50;;
28551;SDS011;15752;49.560;8.708;2023-02-28T00:43:46;2.33;;;1.30;;
28551;SDS011;15752;49.560;8.708;2023-02-28T00:46:15;2.57;;;1.60;;
28551;SDS011;15752;49.560;8.708;2023-02-28T00:48:43;4.70;;;1.50;;
28551;SDS011;15752;49.560;8.708;2023-02-28T00:51:11;1.87;;;1.43;;
28551;SDS011;15752;49.560;8.708;2023-02-28T00:53:40;2.83;;;1.70;;
28551;SDS011;15752;49.560;8.708;2023-02-28T00:56:10;4.17;;;1.80;;
28551;SDS011;15752;49.560;8.708;2023-02-28T00:58:38;2.80;;;1.80;;
28551;SDS011;15752;49.560;8.708;2023-02-28T01:01:06;2.33;;;1.43;;
28551;SDS011;15752;49.560;8.708;2023-02-28T01:03:37;2.40;;;1.57;;
28551;SDS011;15752;49.560;8.708;2023-02-28T01:06:05;2.70;;;1.50;;
28551;SDS011;15752;49.560;8.708;2023-02-28T01:08:34;2.63;;;1.77;;
28551;SDS011;15752;49.560;8.708;2023-02-28T01:11:14;2.33;;;1.80;;
28551;SDS011;15752;49.560;8.708;2023-02-28T01:13:44;2.17;;;1.47;;
28551;SDS011;15752;49.560;8.708;2023-02-28T01:16:13;2.13;;;1.73;;
28551;SDS011;15752;49.560;8.708;2023-02-28T01:18:42;3.67;;;1.87;;
28551;SDS011;15752;49.560;8.708;2023-02-28T01:21:12;1.70;;;1.60;;
28551;SDS011;15752;49.560;8.708;2023-02-28T01:23:43;2.70;;;1.80;;
28551;SDS011;15752;49.560;8.708;2023-02-28T01:26:14;2.20;;;1.80;;
28551;SDS011;15752;49.560;8.708;2023-02-28T01:28:45;3.83;;;1.70;;
28551;SDS011;15752;49.560;8.708;2023-02-28T01:31:15;2.27;;;1.60;;
28551;SDS011;15752;49.560;8.708;2023-02-28T01:36:36;3.53;;;1.80;;
28551;SDS011;15752;49.560;8.708;2023-02-28T01:39:05;2.40;;;2.07;;
28551;SDS011;15752;49.560;8.708;2023-02-28T01:41:34;2.47;;;1.67;;
28551;SDS011;15752;49.560;8.708;2023-02-28T01:44:04;5.30;;;2.27;;
28551;SDS011;15752;49.560;8.708;2023-02-28T01:46:34;3.03;;;2.10;;
28551;SDS011;15752;49.560;8.708;2023-02-28T01:49:05;2.53;;;1.87;;
28551;SDS011;15752;49.560;8.708;2023-02-28T01:51:38;4.20;;;2.20;;
28551;SDS011;15752;49.560;8.708;2023-02-28T01:54:12;3.17;;;1.90;;
28551;SDS011;15752;49.560;8.708;2023-02-28T01:56:47;3.33;;;1.90;;
28551;SDS011;15752;49.560;8.708;2023-02-28T01:59:21;2.50;;;1.80;;
28551;SDS011;15752;49.560;8.708;2023-02-28T02:01:54;2.10;;;1.90;;
28551;SDS011;15752;49.560;8.708;2023-02-28T02:04:23;4.10;;;1.90;;
28551;SDS011;15752;49.560;8.708;2023-02-28T02:06:58;2.27;;;1.73;;
28551;SDS011;15752;49.560;8.708;2023-02-28T02:09:26;2.53;;;1.77;;
28551;SDS011;15752;49.560;8.708;2023-02-28T02:11:56;3.43;;;2.20;;
28551;SDS011;15752;49.560;8.708;2023-02-28T02:14:31;2.03;;;1.83;;
28551;SDS011;15752;49.560;8.708;2023-02-28T02:17:27;2.80;;;1.77;;
28551;SDS011;15752;49.560;8.708;2023-02-28T02:23:27;2.77;;;2.00;;
28551;SDS011;15752;49.560;8.708;2023-02-28T02:26:22;3.93;;;1.93;;
28551;SDS011;15752;49.560;8.708;2023-02-28T02:29:30;3.47;;;2.30;;
28551;SDS011;15752;49.560;8.708;2023-02-28T02:32:17;3.57;;;2.03;;
28551;SDS011;15752;49.560;8.708;2023-02-28T02:35:05;3.40;;;2.47;;
28551;SDS011;15752;49.560;8.708;2023-02-28T02:37:43;3.13;;;2.17;;
28551;SDS011;15752;49.560;8.708;2023-02-28T02:40:19;3.60;;;2.47;;
28551;SDS011;15752;49.560;8.708;2023-02-28T02:42:51;3.00;;;2.23;;
28551;SDS011;15752;49.560;8.708;2023-02-28T02:45:24;2.70;;;2.10;;
28551;SDS011;15752;49.560;8.708;2023-02-28T02:48:02;3.87;;;2.60;;
28551;SDS011;15752;49.560;8.708;2023-02-28T02:50:36;4.20;;;2.20;;
28551;SDS011;15752;49.560;8.708;2023-02-28T02:53:09;3.57;;;2.30;;
28551;SDS011;15752;49.560;8.708;2023-02-28T02:55:40;2.70;;;2.13;;
28551;SDS011;15752;49.560;8.708;2023-02-28T02:58:14;3.87;;;2.07;;
28551;SDS011;15752;49.560;8.708;2023-02-28T03:00:54;3.20;;;2.20;;
28551;SDS011;15752;49.560;8.708;2023-02-28T03:03:27;2.53;;;2.10;;
28551;SDS011;15752;49.560;8.708;2023-02-28T03:06:00;3.90;;;2.57;;
28551;SDS011;15752;49.560;8.708;2023-02-28T03:08:33;2.80;;;2.40;;
28551;SDS011;15752;49.560;8.708;2023-02-28T03:11:06;4.10;;;2.23;;
28551;SDS011;15752;49.560;8.708;2023-02-28T03:13:44;2.90;;;2.13;;
28551;SDS011;15752;49.560;8.708;2023-02-28T03:19:55;4.27;;;2.40;;
28551;SDS011;15752;49.560;8.708;2023-02-28T03:22:53;3.90;;;2.10;;
28551;SDS011;15752;49.560;8.708;2023-02-28T03:25:32;3.03;;;2.20;;
28551;SDS011;15752;49.560;8.708;2023-02-28T03:28:08;4.27;;;2.40;;
28551;SDS011;15752;49.560;8.708;2023-02-28T03:30:47;2.90;;;1.97;;
28551;SDS011;15752;49.560;8.708;2023-02-28T03:33:21;3.43;;;2.30;;
28551;SDS011;15752;49.560;8.708;2023-02-28T03:35:54;3.37;;;2.83;;
28551;SDS011;15752;49.560;8.708;2023-02-28T03:38:29;3.10;;;2.37;;
28551;SDS011;15752;49.560;8.708;2023-02-28T03:41:03;3.97;;;2.20;;
28551;SDS011;15752;49.560;8.708;2023-02-28T03:43:38;3.53;;;2.33;;
28551;SDS011;15752;49.560;8.708;2023-02-28T03:46:12;3.30;;;2.07;;
28551;SDS011;15752;49.560;8.708;2023-02-28T03:48:49;2.03;;;1.90;;
28551;SDS011;15752;49.560;8.708;2023-02-28T03:51:22;3.20;;;2.30;;
28551;SDS011;15752;49.560;8.708;2023-02-28T03:53:56;2.70;;;2.50;;
28551;SDS011;15752;49.560;8.708;2023-02-28T03:56:29;3.40;;;2.17;;
28551;SDS011;15752;49.560;8.708;2023-02-28T03:59:02;2.60;;;2.17;;
28551;SDS011;15752;49.560;8.708;2023-02-28T04:01:37;3.57;;;2.63;;
28551;SDS011;15752;49.560;8.708;2023-02-28T04:04:08;3.43;;;2.43;;
28551;SDS011;15752;49.560;8.708;2023-02-28T04:06:39;3.67;;;3.00;;
28551;SDS011;15752;49.560;8.708;2023-02-28T04:09:10;2.90;;;2.47;;
28551;SDS011;15752;49.560;8.708;2023-02-28T04:11:41;3.03;;;2.40;;
28551;SDS011;15752;49.560;8.708;2023-02-28T04:14:12;3.90;;;2.47;;
28551;SDS011;15752;49.560;8.708;2023-02-28T04:19:20;4.23;;;2.23;;
28551;SDS011;15752;49.560;8.708;2023-02-28T04:21:49;3.63;;;2.37;;
28551;SDS011;15752;49.560;8.708;2023-02-28T04:24:21;3.43;;;2.33;;
28551;SDS011;15752;49.560;8.708;2023-02-28T04:26:51;3.53;;;2.33;;
28551;SDS011;15752;49.560;8.708;2023-02-28T04:29:23;2.77;;;2.33;;
28551;SDS011;15752;49.560;8.708;2023-02-28T04:31:54;2.97;;;2.23;;
28551;SDS011;15752;49.560;8.708;2023-02-28T04:34:25;3.00;;;2.50;;
28551;SDS011;15752;49.560;8.708;2023-02-28T04:36:54;3.80;;;2.50;;
28551;SDS011;15752;49.560;8.708;2023-02-28T04:39:41;3.33;;;2.80;;
28551;SDS011;15752;49.560;8.708;2023-02-28T04:42:10;3.83;;;2.70;;
28551;SDS011;15752;49.560;8.708;2023-02-28T04:44:39;3.00;;;2.57;;
28551;SDS011;15752;49.560;8.708;2023-02-28T04:47:07;2.77;;;2.30;;
28551;SDS011;15752;49.560;8.708;2023-02-28T04:49:36;3.83;;;2.73;;
28551;SDS011;15752;49.560;8.708;2023-02-28T04:52:04;3.80;;;2.70;;
28551;SDS011;15752;49.560;8.708;2023-02-28T04:54:33;5.10;;;3.00;;
28551;SDS011;15752;49.560;8.708;2023-02-28T04:57:03;6.50;;;2.83;;
28551;SDS011;15752;49.560;8.708;2023-02-28T04:59:32;3.90;;;2.83;;
28551;SDS011;15752;49.560;8.708;2023-02-28T05:02:00;3.97;;;2.80;;
28551;SDS011;15752;49.560;8.708;2023-02-28T05:04:33;4.17;;;2.70;;
28551;SDS011;15752;49.560;8.708;2023-02-28T05:07:02;3.23;;;2.50;;
28551;SDS011;15752;49.560;8.708;2023-02-28T05:09:31;5.70;;;2.93;;
28551;SDS011;15752;49.560;8.708;2023-02-28T05:12:00;4.40;;;2.40;;
28551;SDS011;15752;49.560;8.708;2023-02-28T05:14:30;2.80;;;2.30;;
28551;SDS011;15752;49.560;8.708;2023-02-28T05:16:58;3.80;;;2.40;;
28551;SDS011;15752;49.560;8.708;2023-02-28T05:19:26;2.67;;;2.30;;
28551;SDS011;15752;49.560;8.708;2023-02-28T05:21:55;5.63;;;3.47;;
28551;SDS011;15752;49.560;8.708;2023-02-28T05:24:24;4.40;;;3.07;;
28551;SDS011;15752;49.560;8.708;2023-02-28T05:26:53;4.27;;;2.93;;
28551;SDS011;15752;49.560;8.708;2023-02-28T05:29:22;5.20;;;3.17;;
28551;SDS011;15752;49.560;8.708;2023-02-28T05:31:51;5.20;;;3.00;;
28551;SDS011;15752;49.560;8.708;2023-02-28T05:34:20;2.63;;;2.43;;
28551;SDS011;15752;49.560;8.708;2023-02-28T05:36:48;3.93;;;2.57;;
28551;SDS011;15752;49.560;8.708;2023-02-28T05:39:17;2.97;;;2.30;;
28551;SDS011;15752;49.560;8.708;2023-02-28T05:41:45;5.90;;;3.20;;
28551;SDS011;15752;49.560;8.708;2023-02-28T05:44:13;3.70;;;2.97;;
28551;SDS011;15752;49.560;8.708;2023-02-28T05:46:43;3.97;;;3.13;;
28551;SDS011;15752;49.560;8.708;2023-02-28T05:49:12;3.70;;;2.73;;
28551;SDS011;15752;49.560;8.708;2023-02-28T05:51:41;4.80;;;2.90;;
28551;SDS011;15752;49.560;8.708;2023-02-28T05:54:09;6.07;;;2.80;;
28551;SDS011;15752;49.560;8.708;2023-02-28T05:56:39;4.43;;;3.03;;
28551;SDS011;15752;49.560;8.708;2023-02-28T05:59:10;3.90;;;2.90;;
28551;SDS011;15752;49.560;8.708;2023-02-28T06:01:40;3.47;;;2.93;;
28551;SDS011;15752;49.560;8.708;2023-02-28T06:04:16;5.37;;;3.40;;
28551;SDS011;15752;49.560;8.708;2023-02-28T06:06:57;4.17;;;3.40;;
28551;SDS011;15752;49.560;8.708;2023-02-28T06:09:25;6.17;;;3.80;;
28551;SDS011;15752;49.560;8.708;2023-02-28T06:11:54;6.07;;;3.90;;
28551;SDS011;15752;49.560;8.708;2023-02-28T06:14:22;17.07;;;12.40;;
28551;SDS011;15752;49.560;8.708;2023-02-28T06:16:51;10.60;;;8.37;;
28551;SDS011;15752;49.560;8.708;2023-02-28T06:19:20;8.37;;;7.43;;
28551;SDS011;15752;49.560;8.708;2023-02-28T06:21:52;7.17;;;6.47;;
28551;SDS011;15752;49.560;8.708;2023-02-28T06:24:22;7.03;;;6.10;;
28551;SDS011;15752;49.560;8.708;2023-02-28T06:26:54;5.73;;;5.00;;
28551;SDS011;15752;49.560;8.708;2023-02-28T06:29:23;5.20;;;4.60;;
28551;SDS011;15752;49.560;8.708;2023-02-28T06:31:52;4.07;;;3.63;;
28551;SDS011;15752;49.560;8.708;2023-02-28T06:34:23;4.57;;;3.80;;
28551;SDS011;15752;49.560;8.708;2023-02-28T06:36:51;4.60;;;3.83;;
28551;SDS011;15752;49.560;8.708;2023-02-28T06:39:20;4.77;;;4.27;;
28551;SDS011;15752;49.560;8.708;2023-02-28T06:41:48;7.07;;;5.30;;
28551;SDS011;15752;49.560;8.708;2023-02-28T06:44:21;4.80;;;4.30;;
28551;SDS011;15752;49.560;8.708;2023-02-28T06:46:51;6.57;;;4.47;;
28551;SDS011;15752;49.560;8.708;2023-02-28T06:49:19;6.90;;;4.13;;
28551;SDS011;15752;49.560;8.708;2023-02-28T06:51:49;7.67;;;4.10;;
28551;SDS011;15752;49.560;8.708;2023-02-28T06:54:17;5.70;;;3.87;;
28551;SDS011;15752;49.560;8.708;2023-02-28T06:56:45;5.23;;;3.90;;
28551;SDS011;15752;49.560;8.708;2023-02-28T06:59:14;5.13;;;3.70;;
28551;SDS011;15752;49.560;8.708;2023-02-28T07:01:42;4.63;;;3.80;;
28551;SDS011;15752;49.560;8.708;2023-02-28T07:04:11;4.63;;;3.63;;
28551;SDS011;15752;49.560;8.708;2023-02-28T07:06:40;6.07;;;3.73;;
28551;SDS011;15752;49.560;8.708;2023-02-28T07:09:10;3.20;;;2.73;;
28551;SDS011;15752;49.560;8.708;2023-02-28T07:11:40;4.87;;;3.47;;
28551;SDS011;15752;49.560;8.708;2023-02-28T07:14:09;4.40;;;3.50;;
28551;SDS011;15752;49.560;8.708;2023-02-28T07:16:37;5.07;;;3.43;;
28551;SDS011;15752;49.560;8.708;2023-02-28T07:19:05;5.40;;;3.47;;
28551;SDS011;15752;49.560;8.708;2023-02-28T07:21:34;6.27;;;3.80;;
28551;SDS011;15752;49.560;8.708;2023-02-28T07:24:02;6.27;;;3.47;;
28551;SDS011;15752;49.560;8.708;2023-02-28T07:26:32;4.83;;;3.30;;
28551;SDS011;15752;49.560;8.708;2023-02-28T07:29:01;5.33;;;3.40;;
28551;SDS011;15752;49.560;8.708;2023-02-28T07:31:29;4.63;;;3.90;;
28551;SDS011;15752;49.560;8.708;2023-02-28T07:33:58;5.67;;;3.40;;
28551;SDS011;15752;49.560;8.708;2023-02-28T07:36:26;6.40;;;3.33;;
28551;SDS011;15752;49.560;8.708;2023-02-28T07:38:55;4.23;;;3.47;;
28551;SDS011;15752;49.560;8.708;2023-02-28T07:41:23;4.37;;;3.47;;
28551;SDS011;15752;49.560;8.708;2023-02-28T07:43:55;3.97;;;3.40;;
28551;SDS011;15752;49.560;8.708;2023-02-28T07:46:26;7.57;;;3.70;;
28551;SDS011;15752;49.560;8.708;2023-02-28T07:48:56;5.00;;;3.40;;
28551;SDS011;15752;49.560;8.708;2023-02-28T07:51:26;4.57;;;3.10;;
28551;SDS011;15752;49.560;8.708;2023-02-28T07:53:54;5.73;;;3.70;;
28551;SDS011;15752;49.560;8.708;2023-02-28T07:56:23;5.40;;;3.87;;
28551;SDS011;15752;49.560;8.708;2023-02-28T07:58:52;4.13;;;3.10;;
28551;SDS011;15752;49.560;8.708;2023-02-28T08:01:21;5.27;;;3.60;;
28551;SDS011;15752;49.560;8.708;2023-02-28T08:03:50;5.90;;;4.17;;
28551;SDS011;15752;49.560;8.708;2023-02-28T08:06:20;6.70;;;4.20;;
28551;SDS011;15752;49.560;8.708;2023-02-28T08:08:50;5.90;;;4.23;;
28551;SDS011;15752;49.560;8.708;2023-02-28T08:11:22;4.97;;;3.73;;
28551;SDS011;15752;49.560;8.708;2023-02-28T08:13:50;6.40;;;3.97;;
28551;SDS011;15752;49.560;8.708;2023-02-28T08:16:18;5.70;;;3.10;;
28551;SDS011;15752;49.560;8.708;2023-02-28T08:18:50;3.97;;;3.23;;
28551;SDS011;15752;49.560;8.708;2023-02-28T08:21:20;7.07;;;3.73;;
28551;SDS011;15752;49.560;8.708;2023-02-28T08:23:49;3.90;;;3.27;;
28551;SDS011;15752;49.560;8.708;2023-02-28T08:26:19;4.77;;;3.70;;
28551;SDS011;15752;49.560;8.708;2023-02-28T08:28:47;4.97;;;3.63;;
28551;SDS011;15752;49.560;8.708;2023-02-28T08:31:16;4.17;;;3.67;;
28551;SDS011;15752;49.560;8.708;2023-02-28T08:33:45;4.60;;;3.70;;
28551;SDS011;15752;49.560;8.708;2023-02-28T08:36:16;6.50;;;4.07;;
28551;SDS011;15752;49.560;8.708;2023-02-28T08:38:45;5.93;;;4.07;;
28551;SDS011;15752;49.560;8.708;2023-02-28T08:41:13;4.47;;;3.80;;
28551;SDS011;15752;49.560;8.708;2023-02-28T08:43:41;6.23;;;4.10;;
28551;SDS011;15752;49.560;8.708;2023-02-28T08:46:11;6.17;;;4.60;;
28551;SDS011;15752;49.560;8.708;2023-02-28T08:48:40;8.07;;;4.07;;
28551;SDS011;15752;49.560;8.708;2023-02-28T08:51:10;6.40;;;4.17;;
28551;SDS011;15752;49.560;8.708;2023-02-28T08:53:44;5.83;;;3.80;;
28551;SDS011;15752;49.560;8.708;2023-02-28T08:56:13;5.97;;;4.40;;
28551;SDS011;15752;49.560;8.708;2023-02-28T08:58:44;6.40;;;4.60;;
28551;SDS011;15752;49.560;8.708;2023-02-28T09:01:14;8.13;;;4.87;;
28551;SDS011;15752;49.560;8.708;2023-02-28T09:03:45;5.07;;;4.10;;
28551;SDS011;15752;49.560;8.708;2023-02-28T09:06:15;5.27;;;4.27;;
28551;SDS011;15752;49.560;8.708;2023-02-28T09:08:48;6.10;;;3.97;;
28551;SDS011;15752;49.560;8.708;2023-02-28T09:11:16;9.37;;;4.50;;
28551;SDS011;15752;49.560;8.708;2023-02-28T09:13:45;5.90;;;4.30;;
28551;SDS011;15752;49.560;8.708;2023-02-28T09:16:14;5.90;;;4.63;;
28551;SDS011;15752;49.560;8.708;2023-02-28T09:18:44;8.53;;;6.67;;
28551;SDS011;15752;49.560;8.708;2023-02-28T09:21:13;5.33;;;4.60;;
28551;SDS011;15752;49.560;8.708;2023-02-28T09:23:44;7.03;;;4.33;;
28551;SDS011;15752;49.560;8.708;2023-02-28T09:26:17;5.77;;;4.63;;
28551;SDS011;15752;49.560;8.708;2023-02-28T09:28:48;7.40;;;5.77;;
28551;SDS011;15752;49.560;8.708;2023-02-28T09:31:18;6.40;;;4.53;;
28551;SDS011;15752;49.560;8.708;2023-02-28T09:33:50;6.03;;;3.77;;
28551;SDS011;15752;49.560;8.708;2023-02-28T09:36:21;5.53;;;4.70;;
28551;SDS011;15752;49.560;8.708;2023-02-28T09:39:08;6.40;;;4.80;;
28551;SDS011;15752;49.560;8.708;2023-02-28T09:41:37;7.73;;;5.33;;
28551;SDS011;15752;49.560;8.708;2023-02-28T09:44:25;6.87;;;4.17;;
28551;SDS011;15752;49.560;8.708;2023-02-28T09:46:59;6.90;;;4.60;;
28551;SDS011;15752;49.560;8.708;2023-02-28T09:49:36;6.63;;;4.23;;
28551;SDS011;15752;49.560;8.708;2023-02-28T09:52:09;4.93;;;4.13;;
28551;SDS011;15752;49.560;8.708;2023-02-28T09:54:43;5.70;;;4.60;;
28551;SDS011;15752;49.560;8.708;2023-02-28T09:57:14;7.13;;;4.83;;
28551;SDS011;15752;49.560;8.708;2023-02-28T09:59:54;6.33;;;4.80;;
28551;SDS011;15752;49.560;8.708;2023-02-28T10:02:42;5.33;;;4.63;;
28551;SDS011;15752;49.560;8.708;2023-02-28T10:05:20;6.77;;;5.03;;
28551;SDS011;15752;49.560;8.708;2023-02-28T10:07:59;4.33;;;3.83;;
28551;SDS011;15752;49.560;8.708;2023-02-28T10:10:37;6.10;;;4.40;;
28551;SDS011;15752;49.560;8.708;2023-02-28T10:13:13;6.13;;;4.63;;
28551;SDS011;15752;49.560;8.708;2023-02-28T10:15:50;7.33;;;4.33;;
28551;SDS011;15752;49.560;8.708;2023-02-28T10:18:24;6.20;;;4.50;;
28551;SDS011;15752;49.560;8.708;2023-02-28T10:20:56;5.40;;;4.60;;
28551;SDS011;15752;49.560;8.708;2023-02-28T10:23:28;6.43;;;4.80;;
28551;SDS011;15752;49.560;8.708;2023-02-28T10:26:05;5.90;;;5.27;;
28551;SDS011;15752;49.560;8.708;2023-02-28T10:28:42;5.97;;;4.70;;
28551;SDS011;15752;49.560;8.708;2023-02-28T10:31:11;5.57;;;4.57;;
28551;SDS011;15752;49.560;8.708;2023-02-28T10:33:45;6.93;;;4.50;;
28551;SDS011;15752;49.560;8.708;2023-02-28T10:36:15;6.83;;;5.40;;
28551;SDS011;15752;49.560;8.708;2023-02-28T10:38:48;7.73;;;5.23;;
28551;SDS011;15752;49.560;8.708;2023-02-28T10:41:26;5.70;;;4.90;;
28551;SDS011;15752;49.560;8.708;2023-02-28T10:44:12;5.63;;;4.07;;
28551;SDS011;15752;49.560;8.708;2023-02-28T10:46:45;6.40;;;4.83;;
28551;SDS011;15752;49.560;8.708;2023-02-28T10:49:14;6.13;;;4.73;;
28551;SDS011;15752;49.560;8.708;2023-02-28T10:51:49;5.97;;;5.03;;
28551;SDS011;15752;49.560;8.708;2023-02-28T10:54:24;6.73;;;5.10;;
28551;SDS011;15752;49.560;8.708;2023-02-28T10:57:08;5.67;;;4.30;;
28551;SDS011;15752;49.560;8.708;2023-02-28T10:59:45;6.40;;;4.60;;
28551;SDS011;15752;49.560;8.708;2023-02-28T11:02:32;6.80;;;5.00;;
28551;SDS011;15752;49.560;8.708;2023-02-28T11:07:59;8.83;;;5.03;;
28551;SDS011;15752;49.560;8.708;2023-02-28T11:10:34;6.90;;;4.60;;
28551;SDS011;15752;49.560;8.708;2023-02-28T11:13:04;6.13;;;4.90;;
28551;SDS011;15752;49.560;8.708;2023-02-28T11:15:33;5.93;;;4.70;;
28551;SDS011;15752;49.560;8.708;2023-02-28T11:18:17;5.60;;;4.70;;
28551;SDS011;15752;49.560;8.708;2023-02-28T11:20:51;6.97;;;4.67;;
28551;SDS011;15752;49.560;8.708;2023-02-28T11:23:24;6.20;;;5.03;;
28551;SDS011;15752;49.560;8.708;2023-02-28T11:25:55;6.13;;;4.70;;
28551;SDS011;15752;49.560;8.708;2023-02-28T11:28:29;6.30;;;4.97;;
28551;SDS011;15752;49.560;8.708;2023-02-28T11:31:00;7.13;;;5.23;;
28551;SDS011;15752;49.560;8.708;2023-02-28T11:33:43;8.53;;;5.20;;
28551;SDS011;15752;49.560;8.708;2023-02-28T11:36:18;6.43;;;4.77;;
28551;SDS011;15752;49.560;8.708;2023-02-28T11:38:51;5.33;;;4.23;;
28551;SDS011;15752;49.560;8.708;2023-02-28T11:41:29;6.67;;;5.07;;
28551;SDS011;15752;49.560;8.708;2023-02-28T11:44:23;6.60;;;5.50;;
28551;SDS011;15752;49.560;8.708;2023-02-28T11:47:09;5.80;;;4.77;;
28551;SDS011;15752;49.560;8.708;2023-02-28T11:49:44;6.93;;;5.20;;
28551;SDS011;15752;49.560;8.708;2023-02-28T11:52:29;6.03;;;5.10;;
28551;SDS011;15752;49.560;8.708;2023-02-28T11:55:12;5.43;;;4.43;;
28551;SDS011;15752;49.560;8.708;2023-02-28T11:57:52;6.43;;;4.90;;
28551;SDS011;15752;49.560;8.708;2023-02-28T12:00:50;7.03;;;4.97;;
28551;SDS011;15752;49.560;8.708;2023-02-28T12:03:31;6.23;;;4.63;;
28551;SDS011;15752;49.560;8.708;2023-02-28T12:06:15;8.40;;;5.90;;
28551;SDS011;15752;49.560;8.708;2023-02-28T12:09:00;8.97;;;5.83;;
28551;SDS011;15752;49.560;8.708;2023-02-28T12:11:41;6.07;;;5.37;;
28551;SDS011;15752;49.560;8.708;2023-02-28T12:14:28;7.63;;;5.60;;
28551;SDS011;15752;49.560;8.708;2023-02-28T12:17:31;7.87;;;6.37;;
28551;SDS011;15752;49.560;8.708;2023-02-28T12:20:23;8.23;;;5.73;;
28551;SDS011;15752;49.560;8.708;2023-02-28T12:23:03;6.13;;;5.23;;
28551;SDS011;15752;49.560;8.708;2023-02-28T12:25:55;8.50;;;5.57;;
28551;SDS011;15752;49.560;8.708;2023-02-28T12:28:38;7.00;;;5.80;;
28551;SDS011;15752;49.560;8.708;2023-02-28T12:31:11;6.40;;;5.60;;
28551;SDS011;15752;49.560;8.708;2023-02-28T12:33:48;7.40;;;6.00;;
28551;SDS011;15752;49.560;8.708;2023-02-28T12:36:20;7.17;;;5.50;;
28551;SDS011;15752;49.560;8.708;2023-02-28T12:38:51;8.27;;;5.27;;
28551;SDS011;15752;49.560;8.708;2023-02-28T12:41:27;8.17;;;6.10;;
28551;SDS011;15752;49.560;8.708;2023-02-28T12:44:03;7.43;;;5.40;;
28551;SDS011;15752;49.560;8.708;2023-02-28T12:46:38;7.30;;;5.50;;
28551;SDS011;15752;49.560;8.708;2023-02-28T12:49:14;7.50;;;5.77;;
28551;SDS011;15752;49.560;8.708;2023-02-28T12:51:45;7.37;;;5.50;;
28551;SDS011;15752;49.560;8.708;2023-02-28T12:54:16;7.43;;;6.40;;
28551;SDS011;15752;49.560;8.708;2023-02-28T12:56:53;7.83;;;5.80;;
28551;SDS011;15752;49.560;8.708;2023-02-28T12:59:32;9.93;;;5.60;;
28551;SDS011;15752;49.560;8.708;2023-02-28T13:05:49;8.83;;;5.63;;
28551;SDS011;15752;49.560;8.708;2023-02-28T13:08:47;6.37;;;5.03;;
28551;SDS011;15752;49.560;8.708;2023-02-28T13:11:28;7.20;;;5.50;;
28551;SDS011;15752;49.560;8.708;2023-02-28T13:14:00;7.23;;;5.47;;
28551;SDS011;15752;49.560;8.708;2023-02-28T13:16:52;8.20;;;5.67;;
28551;SDS011;15752;49.560;8.708;2023-02-28T13:19:26;6.23;;;5.37;;
28551;SDS011;15752;49.560;8.708;2023-02-28T13:21:59;7.90;;;6.53;;
28551;SDS011;15752;49.560;8.708;2023-02-28T13:27:33;8.97;;;5.80;;
28551;SDS011;15752;49.560;8.708;2023-02-28T13:33:30;7.70;;;6.27;;
28551;SDS011;15752;49.560;8.708;2023-02-28T13:36:10;7.93;;;5.97;;
28551;SDS011;15752;49.560;8.708;2023-02-28T13:38:55;6.77;;;5.60;;
28551;SDS011;15752;49.560;8.708;2023-02-28T13:41:46;8.13;;;6.33;;
28551;SDS011;15752;49.560;8.708;2023-02-28T13:44:16;8.77;;;5.93;;
28551;SDS011;15752;49.560;8.708;2023-02-28T13:50:21;7.43;;;6.07;;
28551;SDS011;15752;49.560;8.708;2023-02-28T13:53:21;6.00;;;5.40;;
28551;SDS011;15752;49.560;8.708;2023-02-28T13:56:08;6.97;;;5.50;;
28551;SDS011;15752;49.560;8.708;2023-02-28T13:58:53;7.40;;;5.10;;
28551;SDS011;15752;49.560;8.708;2023-02-28T14:01:30;7.83;;;5.30;;
28551;SDS011;15752;49.560;8.708;2023-02-28T14:07:17;8.33;;;5.47;;
28551;SDS011;15752;49.560;8.708;2023-02-28T14:09:53;7.30;;;5.80;;
28551;SDS011;15752;49.560;8.708;2023-02-28T14:15:55;6.77;;;5.47;;
28551;SDS011;15752;49.560;8.708;2023-02-28T14:18:26;7.53;;;5.87;;
28551;SDS011;15752;49.560;8.708;2023-02-28T14:20:59;8.03;;;5.87;;
28551;SDS011;15752;49.560;8.708;2023-02-28T14:23:47;8.53;;;6.20;;
28551;SDS011;15752;49.560;8.708;2023-02-28T14:26:46;10.50;;;5.93;;
28551;SDS011;15752;49.560;8.708;2023-02-28T14:29:33;6.63;;;5.30;;
28551;SDS011;15752;49.560;8.708;2023-02-28T14:32:41;7.27;;;5.93;;
28551;SDS011;15752;49.560;8.708;2023-02-28T14:35:20;7.03;;;5.57;;
28551;SDS011;15752;49.560;8.708;2023-02-28T14:38:12;8.17;;;6.13;;
28551;SDS011;15752;49.560;8.708;2023-02-28T14:40:45;9.00;;;6.97;;
28551;SDS011;15752;49.560;8.708;2023-02-28T14:43:19;7.20;;;6.23;;
28551;SDS011;15752;49.560;8.708;2023-02-28T14:45:53;8.90;;;5.90;;
28551;SDS011;15752;49.560;8.708;2023-02-28T14:48:26;6.93;;;5.77;;
28551;SDS011;15752;49.560;8.708;2023-02-28T14:50:55;6.63;;;5.70;;
28551;SDS011;15752;49.560;8.708;2023-02-28T14:53:28;6.67;;;5.80;;
28551;SDS011;15752;49.560;8.708;2023-02-28T14:56:02;8.53;;;6.20;;
28551;SDS011;15752;49.560;8.708;2023-02-28T14:58:32;7.33;;;6.30;;
28551;SDS011;15752;49.560;8.708;2023-02-28T15:01:03;9.80;;;5.93;;
28551;SDS011;15752;49.560;8.708;2023-02-28T15:03:33;6.97;;;6.00;;
28551;SDS011;15752;49.560;8.708;2023-02-28T15:06:04;7.83;;;6.27;;
28551;SDS011;15752;49.560;8.708;2023-02-28T15:08:38;7.37;;;6.00;;
28551;SDS011;15752;49.560;8.708;2023-02-28T15:11:07;10.93;;;6.50;;
28551;SDS011;15752;49.560;8.708;2023-02-28T15:13:42;7.97;;;5.70;;
28551;SDS011;15752;49.560;8.708;2023-02-28T15:16:16;7.87;;;5.97;;
28551;SDS011;15752;49.560;8.708;2023-02-28T15:18:51;7.80;;;5.80;;
28551;SDS011;15752;49.560;8.708;2023-02-28T15:21:26;7.07;;;5.93;;
28551;SDS011;15752;49.560;8.708;2023-02-28T15:23:59;7.53;;;5.80;;
28551;SDS011;15752;49.560;8.708;2023-02-28T15:26:33;7.77;;;5.80;;
28551;SDS011;15752;49.560;8.708;2023-02-28T15:29:06;7.13;;;5.40;;
28551;SDS011;15752;49.560;8.708;2023-02-28T15:31:43;7.57;;;5.87;;
28551;SDS011;15752;49.560;8.708;2023-02-28T15:34:26;7.13;;;5.67;;
28551;SDS011;15752;49.560;8.708;2023-02-28T15:37:29;7.20;;;5.90;;
28551;SDS011;15752;49.560;8.708;2023-02-28T15:40:14;6.90;;;5.77;;
28551;SDS011;15752;49.560;8.708;2023-02-28T15:43:04;8.50;;;5.57;;
28551;SDS011;15752;49.560;8.708;2023-02-28T15:45:36;7.27;;;5.57;;
28551;SDS011;15752;49.560;8.708;2023-02-28T15:48:19;8.13;;;6.07;;
28551;SDS011;15752;49.560;8.708;2023-02-28T15:50:50;7.20;;;6.00;;
28551;SDS011;15752;49.560;8.708;2023-02-28T15:53:22;8.83;;;5.93;;
28551;SDS011;15752;49.560;8.708;2023-02-28T15:55:58;7.30;;;6.17;;
28551;SDS011;15752;49.560;8.708;2023-02-28T15:58:29;8.33;;;6.37;;
28551;SDS011;15752;49.560;8.708;2023-02-28T16:01:04;7.00;;;6.07;;
28551;SDS011;15752;49.560;8.708;2023-02-28T16:03:47;10.50;;;5.70;;